createdAt,value
2018-05-10T00:01:40.425Z,9.87
2018-05-10T00:04:13.721Z,9.63
2018-05-10T00:06:46.951Z,9.20
2018-05-10T00:09:19.341Z,9.47
2018-05-10T00:11:51.853Z,9.30
2018-05-10T00:14:24.202Z,9.07
2018-05-10T00:16:56.609Z,8.20
2018-05-10T00:19:28.941Z,8.50
2018-05-10T00:22:01.549Z,8.27
2018-05-10T00:24:34.230Z,9.30
2018-05-10T00:27:06.692Z,9.90
2018-05-10T00:29:40.010Z,9.80
2018-05-10T00:32:12.489Z,11.90
2018-05-10T00:34:44.886Z,9.70
2018-05-10T00:37:17.457Z,10.60
2018-05-10T00:39:49.889Z,9.67
2018-05-10T00:42:22.393Z,12.60
2018-05-10T00:44:54.810Z,10.37
2018-05-10T00:47:27.177Z,10.23
2018-05-10T00:49:59.597Z,10.13
2018-05-10T00:52:32.240Z,9.80
2018-05-10T00:55:05.511Z,10.60
2018-05-10T00:57:37.842Z,9.00
2018-05-10T01:00:10.281Z,8.73
2018-05-10T01:02:42.753Z,8.40
2018-05-10T01:05:16.877Z,8.73
2018-05-10T01:07:49.433Z,8.83
2018-05-10T01:10:22.810Z,11.00
2018-05-10T01:12:55.885Z,8.93
2018-05-10T01:15:28.306Z,8.70
2018-05-10T01:18:00.818Z,8.90
2018-05-10T01:20:33.441Z,9.17
2018-05-10T01:23:13.477Z,8.70
2018-05-10T01:25:45.984Z,8.57
2018-05-10T01:28:18.626Z,8.87
2018-05-10T01:30:51.161Z,8.97
2018-05-10T01:33:24.588Z,8.40
2018-05-10T01:36:10.155Z,8.10
2018-05-10T01:38:42.773Z,10.10
2018-05-10T01:41:15.226Z,9.30
2018-05-10T01:43:48.493Z,8.80
2018-05-10T01:46:20.922Z,8.53
2018-05-10T01:48:54.195Z,8.70
2018-05-10T01:51:30.166Z,8.97
2018-05-10T01:54:02.756Z,8.50
2018-05-10T01:56:36.525Z,9.70
2018-05-10T01:59:09.079Z,8.40
2018-05-10T02:01:42.745Z,8.30
2018-05-10T02:04:15.189Z,8.70
2018-05-10T02:06:47.884Z,8.87
2018-05-10T02:09:21.042Z,9.70
2018-05-10T02:11:53.533Z,8.83
2018-05-10T02:14:26.018Z,8.90
2018-05-10T02:17:03.327Z,9.17
2018-05-10T02:19:35.971Z,8.90
2018-05-10T02:22:08.677Z,9.70
2018-05-10T02:24:41.063Z,9.07
2018-05-10T02:27:13.441Z,9.57
2018-05-10T02:29:46.192Z,9.97
2018-05-10T02:32:18.854Z,10.30
2018-05-10T02:34:51.225Z,10.30
2018-05-10T02:37:23.587Z,9.73
2018-05-10T02:39:57.750Z,11.13
2018-05-10T02:42:31.401Z,10.90
2018-05-10T02:45:03.999Z,10.90
2018-05-10T02:47:39.022Z,11.40
2018-05-10T02:50:11.592Z,10.73
2018-05-10T02:52:44.142Z,10.87
2018-05-10T02:55:16.681Z,10.93
2018-05-10T02:57:49.261Z,10.97
2018-05-10T03:00:21.617Z,11.00
2018-05-10T03:02:54.057Z,11.90
2018-05-10T03:05:30.286Z,11.80
2018-05-10T03:08:02.757Z,12.00
2018-05-10T03:10:35.106Z,11.27
2018-05-10T03:13:08.461Z,12.17
2018-05-10T03:15:40.783Z,12.20
2018-05-10T03:18:14.153Z,12.20
2018-05-10T03:20:46.580Z,12.70
2018-05-10T03:23:19.155Z,13.27
2018-05-10T03:25:52.300Z,11.20
2018-05-10T03:28:25.378Z,11.43
2018-05-10T03:30:58.727Z,12.27
2018-05-10T03:33:32.001Z,11.47
2018-05-10T03:36:05.342Z,11.07
2018-05-10T03:38:37.913Z,12.07
2018-05-10T03:41:10.339Z,11.73
2018-05-10T03:43:42.895Z,11.50
2018-05-10T03:46:15.594Z,11.83
2018-05-10T03:48:48.123Z,12.10
2018-05-10T03:51:20.670Z,12.20
2018-05-10T03:53:53.073Z,12.07
2018-05-10T03:56:25.456Z,11.27
2018-05-10T03:58:58.760Z,11.30
2018-05-10T04:01:31.168Z,11.80
2018-05-10T04:04:19.734Z,11.60
2018-05-10T04:07:05.219Z,11.20
2018-05-10T04:09:49.801Z,12.07
2018-05-10T04:12:22.225Z,11.73
2018-05-10T04:14:54.589Z,11.13
2018-05-10T04:17:27.109Z,12.67
2018-05-10T04:20:00.217Z,11.40
2018-05-10T04:22:32.721Z,11.63
2018-05-10T04:25:05.337Z,11.87
2018-05-10T04:27:37.762Z,11.47
2018-05-10T04:30:10.172Z,13.20
2018-05-10T04:32:43.286Z,12.07
2018-05-10T04:35:15.933Z,11.23
2018-05-10T04:37:49.281Z,11.27
2018-05-10T04:40:22.460Z,11.90
2018-05-10T04:42:55.037Z,11.80
2018-05-10T04:45:27.590Z,12.60
2018-05-10T04:47:59.982Z,12.20
2018-05-10T04:50:32.577Z,11.70
2018-05-10T04:53:04.989Z,10.50
2018-05-10T04:55:37.607Z,11.17
2018-05-10T04:58:10.959Z,11.60
2018-05-10T05:00:44.233Z,10.30
2018-05-10T05:03:16.669Z,11.40
2018-05-10T05:05:49.194Z,10.70
2018-05-10T05:08:21.834Z,11.80
2018-05-10T05:10:55.000Z,12.00
2018-05-10T05:13:27.401Z,13.47
2018-05-10T05:15:59.897Z,12.20
2018-05-10T05:18:32.572Z,13.20
2018-05-10T05:21:05.148Z,12.80
2018-05-10T05:23:37.561Z,12.60
2018-05-10T05:26:09.914Z,13.17
2018-05-10T05:28:42.302Z,14.03
2018-05-10T05:31:14.947Z,13.63
2018-05-10T05:33:48.252Z,13.80
2018-05-10T05:36:20.917Z,13.53
2018-05-10T05:38:53.421Z,13.53
2018-05-10T05:41:26.043Z,14.10
2018-05-10T05:43:58.537Z,13.40
2018-05-10T05:46:30.949Z,13.97
2018-05-10T05:49:03.599Z,14.10
2018-05-10T05:51:36.861Z,14.47
2018-05-10T05:54:09.281Z,15.63
2018-05-10T05:56:41.709Z,14.60
2018-05-10T05:59:14.324Z,15.63
2018-05-10T06:01:46.717Z,14.70
2018-05-10T06:04:19.265Z,15.80
2018-05-10T06:06:51.797Z,14.80
2018-05-10T06:09:24.980Z,14.57
2018-05-10T06:11:57.364Z,15.30
2018-05-10T06:14:29.809Z,14.87
2018-05-10T06:17:03.073Z,14.53
2018-05-10T06:19:35.446Z,15.03
2018-05-10T06:22:07.965Z,15.27
2018-05-10T06:24:40.631Z,16.53
2018-05-10T06:27:13.120Z,15.90
2018-05-10T06:29:45.648Z,15.90
2018-05-10T06:32:18.025Z,14.33
2018-05-10T06:34:51.610Z,15.33
2018-05-10T06:37:24.232Z,15.93
2018-05-10T06:40:01.675Z,15.53
2018-05-10T06:42:34.234Z,15.03
2018-05-10T06:45:06.622Z,16.00
2018-05-10T06:47:39.211Z,15.37
2018-05-10T06:50:11.545Z,15.37
2018-05-10T06:52:43.954Z,14.03
2018-05-10T06:55:16.402Z,15.47
2018-05-10T06:57:49.860Z,13.40
2018-05-10T07:00:22.412Z,14.90
2018-05-10T07:02:54.956Z,15.90
2018-05-10T07:05:28.214Z,15.23
2018-05-10T07:08:01.424Z,15.73
2018-05-10T07:10:33.862Z,15.70
2018-05-10T07:13:06.418Z,14.93
2018-05-10T07:15:38.887Z,14.90
2018-05-10T07:18:11.525Z,16.57
2018-05-10T07:20:44.637Z,15.90
2018-05-10T07:23:17.050Z,15.30
2018-05-10T07:25:49.604Z,16.00
2018-05-10T07:28:22.046Z,17.17
2018-05-10T07:30:54.670Z,17.10
2018-05-10T07:33:27.074Z,15.50
2018-05-10T07:35:59.753Z,14.93
2018-05-10T07:38:32.230Z,16.17
2018-05-10T07:41:04.634Z,15.63
2018-05-10T07:43:37.298Z,18.27
2018-05-10T07:46:11.421Z,17.70
2018-05-10T07:48:44.649Z,17.87
2018-05-10T07:51:17.079Z,18.40
2018-05-10T07:53:49.530Z,18.47
2018-05-10T07:56:21.985Z,20.20
2018-05-10T07:58:54.509Z,21.43
2018-05-10T08:01:27.884Z,19.90
2018-05-10T08:04:00.410Z,19.40
2018-05-10T08:06:32.846Z,20.30
2018-05-10T08:09:05.390Z,20.70
2018-05-10T08:11:37.792Z,20.00
2018-05-10T08:14:10.432Z,19.90
2018-05-10T08:16:42.884Z,20.70
2018-05-10T08:19:15.546Z,20.40
2018-05-10T08:21:48.865Z,21.23
2018-05-10T08:24:21.614Z,21.37
2018-05-10T08:26:54.114Z,20.67
2018-05-10T08:29:29.296Z,19.87
2018-05-10T08:32:02.029Z,18.93
2018-05-10T08:34:34.848Z,20.93
2018-05-10T08:37:07.557Z,18.23
2018-05-10T08:39:40.139Z,19.80
2018-05-10T08:42:12.770Z,19.80
2018-05-10T08:44:45.221Z,20.40
2018-05-10T08:47:18.383Z,20.17
2018-05-10T08:49:50.844Z,21.00
2018-05-10T08:52:23.253Z,21.60
2018-05-10T08:54:55.709Z,21.73
2018-05-10T08:57:28.186Z,19.40
2018-05-10T09:00:00.748Z,20.93
2018-05-10T09:02:33.166Z,19.50
2018-05-10T09:05:06.425Z,19.40
2018-05-10T09:07:38.844Z,18.70
2018-05-10T09:10:11.208Z,20.40
2018-05-10T09:12:43.648Z,18.63
2018-05-10T09:15:16.092Z,19.23
2018-05-10T09:17:48.457Z,19.07
2018-05-10T09:20:22.034Z,19.03
2018-05-10T09:22:54.431Z,20.90
2018-05-10T09:25:27.586Z,19.63
2018-05-10T09:28:00.079Z,22.67
2018-05-10T09:30:33.081Z,21.70
2018-05-10T09:33:06.154Z,21.27
2018-05-10T09:35:38.634Z,21.43
2018-05-10T09:38:11.995Z,20.47
2018-05-10T09:40:44.329Z,20.47
2018-05-10T09:43:16.965Z,20.77
2018-05-10T09:45:49.322Z,20.10
2018-05-10T09:48:21.806Z,20.90
2018-05-10T09:50:54.940Z,22.07
2018-05-10T09:53:27.335Z,20.23
2018-05-10T09:55:59.717Z,20.50
2018-05-10T09:58:32.315Z,18.47
2018-05-10T10:01:04.779Z,19.83
2018-05-10T10:03:37.195Z,19.77
2018-05-10T10:06:09.644Z,19.47
2018-05-10T10:08:42.040Z,21.70
2018-05-10T10:11:14.608Z,20.90
2018-05-10T10:13:47.965Z,20.33
2018-05-10T10:16:22.114Z,20.30
2018-05-10T10:18:54.733Z,20.77
2018-05-10T10:21:27.163Z,21.17
2018-05-10T10:23:59.545Z,20.70
2018-05-10T10:26:32.113Z,20.90
2018-05-10T10:29:05.314Z,23.13
2018-05-10T10:31:37.734Z,23.33
2018-05-10T10:34:11.133Z,24.60
2018-05-10T10:36:43.621Z,24.07
2018-05-10T10:39:16.177Z,25.20
2018-05-10T10:41:48.783Z,25.23
2018-05-10T10:44:21.855Z,22.40
2018-05-10T10:46:54.589Z,24.50
2018-05-10T10:49:27.157Z,24.73
2018-05-10T10:52:04.104Z,26.60
2018-05-10T10:54:36.867Z,26.50
2018-05-10T10:57:09.484Z,24.90
2018-05-10T10:59:43.891Z,27.47
2018-05-10T11:02:16.421Z,28.67
2018-05-10T11:04:48.978Z,28.77
2018-05-10T11:07:23.198Z,27.60
2018-05-10T11:09:55.757Z,26.20
2018-05-10T11:12:29.109Z,22.60
2018-05-10T11:15:01.566Z,21.10
2018-05-10T11:17:35.845Z,18.90
2018-05-10T11:20:08.430Z,19.80
2018-05-10T11:22:47.234Z,20.70
2018-05-10T11:25:19.631Z,19.57
2018-05-10T11:27:52.242Z,24.40
2018-05-10T11:30:25.795Z,23.70
2018-05-10T11:32:58.828Z,22.97
2018-05-10T11:35:33.164Z,18.83
2018-05-10T11:38:06.534Z,14.87
2018-05-10T11:40:41.307Z,14.07
2018-05-10T11:43:13.713Z,10.87
2018-05-10T11:45:46.168Z,9.17
2018-05-10T11:48:18.881Z,8.73
2018-05-10T11:50:51.269Z,8.87
2018-05-10T11:53:23.774Z,8.10
2018-05-10T11:55:56.384Z,8.63
2018-05-10T11:58:28.948Z,7.80
2018-05-10T12:01:01.543Z,7.63
2018-05-10T12:03:34.097Z,8.00
2018-05-10T12:06:06.772Z,7.30
2018-05-10T12:08:39.358Z,6.97
2018-05-10T12:11:12.580Z,7.03
2018-05-10T12:13:45.714Z,7.00
2018-05-10T12:16:18.205Z,6.90
2018-05-10T12:18:51.578Z,7.60
2018-05-10T12:21:24.694Z,7.30
2018-05-10T12:23:57.355Z,8.40
2018-05-10T12:26:29.885Z,8.03
2018-05-10T12:29:03.101Z,8.20
2018-05-10T12:31:35.637Z,8.37
2018-05-10T12:34:08.171Z,8.33
2018-05-10T12:36:40.777Z,9.50
2018-05-10T12:39:13.419Z,7.90
2018-05-10T12:41:46.923Z,8.70
2018-05-10T12:44:19.273Z,7.03
2018-05-10T12:46:51.865Z,6.27
2018-05-10T12:49:24.490Z,5.20
2018-05-10T12:51:57.606Z,5.27
2018-05-10T12:54:30.951Z,5.60
2018-05-10T12:57:03.406Z,5.23
2018-05-10T12:59:39.818Z,6.60
2018-05-10T13:02:13.361Z,7.67
2018-05-10T13:04:45.702Z,7.60
2018-05-10T13:07:18.185Z,10.77
2018-05-10T13:09:50.599Z,9.03
2018-05-10T13:12:22.946Z,10.10
2018-05-10T13:14:55.353Z,9.07
2018-05-10T13:17:27.875Z,10.17
2018-05-10T13:20:00.250Z,10.40
2018-05-10T13:22:32.591Z,10.60
2018-05-10T13:25:05.902Z,10.60
2018-05-10T13:27:38.520Z,11.10
2018-05-10T13:30:10.830Z,10.80
2018-05-10T13:32:43.395Z,9.03
2018-05-10T13:35:16.550Z,8.53
2018-05-10T13:37:49.178Z,9.00
2018-05-10T13:40:22.278Z,6.00
2018-05-10T13:42:55.368Z,7.80
2018-05-10T13:45:27.877Z,7.60
2018-05-10T13:48:00.529Z,7.30
2018-05-10T13:50:32.957Z,5.90
2018-05-10T13:53:05.399Z,6.40
2018-05-10T13:55:38.409Z,6.63
2018-05-10T13:58:11.883Z,7.20
2018-05-10T14:00:50.497Z,7.03
2018-05-10T14:03:23.025Z,5.27
2018-05-10T14:05:56.153Z,5.63
2018-05-10T14:08:28.549Z,5.23
2018-05-10T14:11:00.988Z,5.37
2018-05-10T14:13:33.478Z,5.10
2018-05-10T14:16:06.628Z,4.40
2018-05-10T14:18:39.048Z,5.80
2018-05-10T14:21:11.620Z,5.90
2018-05-10T14:23:47.841Z,4.60
2018-05-10T14:26:21.040Z,4.73
2018-05-10T14:28:54.175Z,4.70
2018-05-10T14:31:26.734Z,4.87
2018-05-10T14:33:59.097Z,4.37
2018-05-10T14:36:31.704Z,4.40
2018-05-10T14:39:05.286Z,4.67
2018-05-10T14:41:37.890Z,4.57
2018-05-10T14:44:10.265Z,4.60
2018-05-10T14:46:42.938Z,4.20
2018-05-10T14:49:15.517Z,4.77
2018-05-10T14:51:48.662Z,4.70
2018-05-10T14:54:20.994Z,4.47
2018-05-10T14:56:54.094Z,5.80
2018-05-10T14:59:27.410Z,4.17
2018-05-10T15:02:00.052Z,4.70
2018-05-10T15:04:32.522Z,4.20
2018-05-10T15:07:05.105Z,4.20
2018-05-10T15:09:38.190Z,4.20
2018-05-10T15:12:10.659Z,5.17
2018-05-10T15:14:43.156Z,5.23
2018-05-10T15:17:15.717Z,5.30
2018-05-10T15:19:48.228Z,5.60
2018-05-10T15:22:20.633Z,4.90
2018-05-10T15:24:53.451Z,5.47
2018-05-10T15:27:26.231Z,5.10
2018-05-10T15:29:58.734Z,5.00
2018-05-10T15:32:31.212Z,4.97
2018-05-10T15:35:03.676Z,4.03
2018-05-10T15:37:36.285Z,4.07
2018-05-10T15:40:08.701Z,4.17
2018-05-10T15:42:42.039Z,4.13
2018-05-10T15:45:14.731Z,4.47
2018-05-10T15:47:47.141Z,4.40
2018-05-10T15:50:19.482Z,4.40
2018-05-10T15:52:51.958Z,5.13
2018-05-10T15:55:25.113Z,7.73
2018-05-10T15:57:57.558Z,7.80
2018-05-10T16:00:29.945Z,7.50
2018-05-10T16:03:02.358Z,6.60
2018-05-10T16:05:35.629Z,7.27
2018-05-10T16:08:09.014Z,7.00
2018-05-10T16:10:41.559Z,5.20
2018-05-10T16:13:14.181Z,5.23
2018-05-10T16:15:47.273Z,5.20
2018-05-10T16:18:19.802Z,4.73
2018-05-10T16:20:52.169Z,4.80
2018-05-10T16:23:24.590Z,4.40
2018-05-10T16:25:56.990Z,4.70
2018-05-10T16:28:30.259Z,4.10
2018-05-10T16:31:02.655Z,4.27
2018-05-10T16:33:38.514Z,4.30
2018-05-10T16:36:10.936Z,4.43
2018-05-10T16:38:43.495Z,5.03
2018-05-10T16:41:16.022Z,4.70
2018-05-10T16:43:49.402Z,4.57
2018-05-10T16:46:21.757Z,4.80
2018-05-10T16:48:54.392Z,4.27
2018-05-10T16:51:26.855Z,5.30
2018-05-10T16:53:59.339Z,4.23
2018-05-10T16:56:32.991Z,5.67
2018-05-10T16:59:05.346Z,4.90
2018-05-10T17:01:37.989Z,5.17
2018-05-10T17:04:11.213Z,5.53
2018-05-10T17:06:43.742Z,5.27
2018-05-10T17:09:16.239Z,4.70
2018-05-10T17:11:48.838Z,4.87
2018-05-10T17:14:21.437Z,4.83
2018-05-10T17:16:54.034Z,4.60
2018-05-10T17:19:27.198Z,4.93
2018-05-10T17:22:00.317Z,5.30
2018-05-10T17:24:33.502Z,5.27
2018-05-10T17:27:06.705Z,4.83
2018-05-10T17:29:46.371Z,6.00
2018-05-10T17:32:25.903Z,5.87
2018-05-10T17:34:58.432Z,5.20
2018-05-10T17:37:31.763Z,4.73
2018-05-10T17:40:26.751Z,4.90
2018-05-10T17:42:59.250Z,5.13
2018-05-10T17:45:31.657Z,4.77
2018-05-10T17:48:06.415Z,4.57
2018-05-10T17:50:39.781Z,4.67
2018-05-10T17:53:12.513Z,4.60
2018-05-10T17:55:45.046Z,5.27
2018-05-10T17:58:17.486Z,4.70
2018-05-10T18:00:50.225Z,4.20
2018-05-10T18:03:24.530Z,4.03
2018-05-10T18:05:57.233Z,3.90
2018-05-10T18:08:29.755Z,4.10
2018-05-10T18:11:02.413Z,4.00
2018-05-10T18:13:35.231Z,3.57
2018-05-10T18:16:08.479Z,4.30
2018-05-10T18:18:42.168Z,4.03
2018-05-10T18:21:14.957Z,3.90
2018-05-10T18:23:47.474Z,4.37
2018-05-10T18:26:20.809Z,3.93
2018-05-10T18:28:53.258Z,3.70
2018-05-10T18:31:31.197Z,4.30
2018-05-10T18:34:08.023Z,4.10
2018-05-10T18:36:40.647Z,4.30
2018-05-10T18:39:13.860Z,3.83
2018-05-10T18:41:46.564Z,4.60
2018-05-10T18:44:19.986Z,4.63
2018-05-10T18:46:53.386Z,4.50
2018-05-10T18:49:25.894Z,5.53
2018-05-10T18:51:58.462Z,5.53
2018-05-10T18:54:31.199Z,4.93
2018-05-10T18:57:04.067Z,3.97
2018-05-10T18:59:36.919Z,4.57
2018-05-10T19:02:09.698Z,3.80
2018-05-10T19:04:42.534Z,4.00
2018-05-10T19:07:15.970Z,4.97
2018-05-10T19:09:49.497Z,4.27
2018-05-10T19:12:22.251Z,4.13
2018-05-10T19:14:56.313Z,3.73
2018-05-10T19:17:29.777Z,3.57
2018-05-10T19:20:02.899Z,3.60
2018-05-10T19:22:35.983Z,4.20
2018-05-10T19:25:08.436Z,4.70
2018-05-10T19:27:41.953Z,6.47
2018-05-10T19:30:14.979Z,4.63
2018-05-10T19:32:57.570Z,4.50
2018-05-10T19:35:30.194Z,4.20
2018-05-10T19:38:06.659Z,3.97
2018-05-10T19:40:42.486Z,4.00
2018-05-10T19:43:15.401Z,4.50
2018-05-10T19:45:47.952Z,3.80
2018-05-10T19:48:20.863Z,4.30
2018-05-10T19:50:53.758Z,5.33
2018-05-10T19:53:30.420Z,4.90
2018-05-10T19:56:03.207Z,4.77
2018-05-10T19:58:35.967Z,4.27
2018-05-10T20:01:10.576Z,4.77
2018-05-10T20:03:57.901Z,4.90
2018-05-10T20:06:30.499Z,4.77
2018-05-10T20:09:03.081Z,4.97
2018-05-10T20:11:35.643Z,4.50
2018-05-10T20:14:08.155Z,4.40
2018-05-10T20:16:40.526Z,4.00
2018-05-10T20:19:13.154Z,4.50
2018-05-10T20:21:45.688Z,4.23
2018-05-10T20:24:18.257Z,4.40
2018-05-10T20:26:51.402Z,4.70
2018-05-10T20:29:23.865Z,4.40
2018-05-10T20:31:57.207Z,4.00
2018-05-10T20:34:29.722Z,4.10
2018-05-10T20:37:02.240Z,4.60
2018-05-10T20:39:35.333Z,4.10
2018-05-10T20:42:07.785Z,4.67
2018-05-10T20:44:40.327Z,3.67
2018-05-10T20:47:12.686Z,4.23
2018-05-10T20:49:45.134Z,4.57
2018-05-10T20:52:18.469Z,4.40
2018-05-10T20:54:51.040Z,4.10
2018-05-10T20:57:23.489Z,4.53
2018-05-10T20:59:59.670Z,4.57
2018-05-10T21:02:33.070Z,3.70
2018-05-10T21:05:05.606Z,4.50
2018-05-10T21:07:38.748Z,5.00
2018-05-10T21:10:12.170Z,4.20
2018-05-10T21:12:45.485Z,3.93
2018-05-10T21:15:18.050Z,4.50
2018-05-10T21:17:50.496Z,4.40
2018-05-10T21:20:22.923Z,4.20
2018-05-10T21:22:55.525Z,4.57
2018-05-10T21:25:28.041Z,5.27
2018-05-10T21:28:00.722Z,4.77
2018-05-10T21:30:33.474Z,3.83
2018-05-10T21:33:08.147Z,6.77
2018-05-10T21:35:40.577Z,4.50
2018-05-10T21:38:13.258Z,4.37
2018-05-10T21:40:45.829Z,4.40
2018-05-10T21:43:18.233Z,4.70
2018-05-10T21:45:51.610Z,4.57
2018-05-10T21:48:24.050Z,5.00
2018-05-10T21:50:56.550Z,4.60
2018-05-10T21:53:30.209Z,4.70
2018-05-10T21:56:02.904Z,4.23
2018-05-10T21:58:35.385Z,4.97
2018-05-10T22:01:07.926Z,4.13
2018-05-10T22:03:41.077Z,5.30
2018-05-10T22:06:14.865Z,5.77
2018-05-10T22:08:47.520Z,4.80
2018-05-10T22:11:20.198Z,5.10
2018-05-10T22:13:54.648Z,4.80
2018-05-10T22:16:27.187Z,4.37
2018-05-10T22:18:59.846Z,4.33
2018-05-10T22:21:32.318Z,4.70
2018-05-10T22:24:04.811Z,4.63
2018-05-10T22:26:37.189Z,4.80
2018-05-10T22:29:09.854Z,5.07
2018-05-10T22:31:42.377Z,4.97
2018-05-10T22:34:15.297Z,4.90
2018-05-10T22:36:47.882Z,4.90
2018-05-10T22:39:20.326Z,4.73
2018-05-10T22:41:53.407Z,5.20
2018-05-10T22:44:25.957Z,4.37
2018-05-10T22:46:58.523Z,4.87
2018-05-10T22:49:30.956Z,5.33
2018-05-10T22:52:03.585Z,4.47
2018-05-10T22:54:36.869Z,5.03
2018-05-10T22:57:09.287Z,4.83
2018-05-10T22:59:41.721Z,5.83
2018-05-10T23:02:14.394Z,6.20
2018-05-10T23:04:46.834Z,5.37
2018-05-10T23:07:19.193Z,5.93
2018-05-10T23:09:51.689Z,5.33
2018-05-10T23:12:24.914Z,5.70
2018-05-10T23:14:57.515Z,5.40
2018-05-10T23:17:30.160Z,5.97
2018-05-10T23:20:02.689Z,5.40
2018-05-10T23:22:35.074Z,5.50
2018-05-10T23:25:08.603Z,5.43
2018-05-10T23:27:41.041Z,5.40
2018-05-10T23:30:13.507Z,5.50
2018-05-10T23:32:46.635Z,6.67
2018-05-10T23:35:19.173Z,6.00
2018-05-10T23:37:52.346Z,6.20
2018-05-10T23:40:24.818Z,5.30
2018-05-10T23:42:57.453Z,5.93
2018-05-10T23:45:29.989Z,6.13
2018-05-10T23:48:02.606Z,5.77
2018-05-10T23:50:35.209Z,5.73
2018-05-10T23:53:07.597Z,5.83
2018-05-10T23:55:40.846Z,5.73
2018-05-10T23:58:13.996Z,6.50
